createdAt,value
2019-01-14T05:00:57.029Z,0.00
2019-01-14T05:01:56.892Z,0.00
2019-01-14T05:03:49.552Z,0.00
2019-01-14T05:04:49.440Z,0.00
2019-01-14T05:06:42.110Z,0.00
2019-01-14T05:07:41.991Z,0.00
2019-01-14T05:09:34.660Z,0.00
2019-01-14T05:10:34.531Z,0.00
2019-01-14T05:12:27.218Z,0.00
2019-01-14T05:13:27.083Z,0.00
2019-01-14T05:15:19.745Z,0.00
2019-01-14T05:16:19.631Z,0.00
2019-01-14T05:18:12.306Z,0.00
2019-01-14T05:19:12.193Z,0.00
2019-01-14T05:21:04.842Z,0.00
2019-01-14T05:22:04.732Z,0.00
2019-01-14T05:23:57.419Z,0.00
2019-01-14T05:24:57.279Z,0.00
2019-01-14T05:26:49.944Z,0.00
2019-01-14T05:27:49.827Z,0.00
2019-01-14T05:29:42.530Z,0.00
2019-01-14T05:30:42.400Z,0.00
2019-01-14T05:32:35.069Z,0.00
2019-01-14T05:33:34.958Z,0.00
2019-01-14T05:35:27.639Z,0.00
2019-01-14T05:36:27.508Z,0.00
2019-01-14T05:38:20.160Z,0.00
2019-01-14T05:39:20.044Z,0.00
2019-01-14T05:41:12.727Z,0.00
2019-01-14T05:42:12.597Z,0.00
2019-01-14T05:44:05.248Z,0.00
2019-01-14T05:45:05.134Z,0.00
2019-01-14T05:46:57.813Z,0.00
2019-01-14T05:47:57.686Z,0.00
2019-01-14T05:49:50.338Z,0.00
2019-01-14T05:50:50.229Z,0.00
2019-01-14T05:52:42.899Z,0.00
2019-01-14T05:53:42.774Z,0.00
2019-01-14T05:55:35.430Z,0.00
2019-01-14T05:56:35.315Z,0.00
2019-01-14T05:58:28.020Z,0.00
2019-01-14T05:59:27.987Z,0.00
2019-01-14T06:01:20.547Z,0.00
2019-01-14T06:02:20.431Z,0.00
2019-01-14T06:04:14.101Z,0.00
2019-01-14T06:05:13.974Z,0.00
2019-01-14T06:07:06.666Z,0.00
2019-01-14T06:08:06.519Z,0.00
2019-01-14T06:09:59.209Z,0.00
2019-01-14T06:10:59.077Z,0.00
2019-01-14T06:12:51.762Z,0.00
2019-01-14T06:13:51.625Z,0.00
2019-01-14T06:15:44.289Z,0.00
2019-01-14T06:16:44.172Z,0.00
2019-01-14T06:18:36.868Z,0.00
2019-01-14T06:19:36.733Z,0.00
2019-01-14T06:21:29.490Z,0.00
2019-01-14T06:22:29.381Z,0.00
2019-01-14T06:24:22.051Z,0.00
2019-01-14T06:25:21.923Z,0.00
2019-01-14T06:27:14.577Z,0.00
2019-01-14T06:28:14.462Z,0.00
2019-01-14T06:30:07.149Z,0.00
2019-01-14T06:31:07.007Z,0.00
2019-01-14T06:32:59.668Z,0.00
2019-01-14T06:33:59.551Z,0.00
2019-01-14T06:35:52.226Z,0.00
2019-01-14T06:36:52.099Z,0.00
2019-01-14T06:38:44.758Z,0.00
2019-01-14T06:39:44.649Z,0.00
2019-01-14T06:41:37.357Z,0.00
2019-01-14T06:42:37.219Z,0.00
2019-01-14T06:44:29.894Z,0.00
2019-01-14T06:45:29.779Z,0.00
2019-01-14T06:47:22.455Z,0.00
2019-01-14T06:48:22.337Z,0.00
2019-01-14T06:50:14.983Z,0.00
2019-01-14T06:51:14.875Z,0.00
2019-01-14T06:53:07.552Z,4.00
2019-01-14T06:54:07.427Z,4.00
2019-01-14T06:56:00.085Z,0.00
2019-01-14T06:56:59.970Z,4.00
2019-01-14T06:58:52.685Z,0.00
2019-01-14T06:59:52.522Z,4.00
2019-01-14T07:01:45.197Z,8.00
2019-01-14T07:02:45.082Z,8.00
2019-01-14T07:04:37.760Z,8.00
2019-01-14T07:05:37.629Z,8.00
2019-01-14T07:07:30.290Z,12.00
2019-01-14T07:08:30.181Z,12.00
2019-01-14T07:10:22.859Z,16.00
2019-01-14T07:11:22.733Z,20.00
2019-01-14T07:13:15.386Z,24.00
2019-01-14T07:14:15.272Z,28.00
2019-01-14T07:16:07.950Z,36.00
2019-01-14T07:17:07.820Z,40.00
2019-01-14T07:19:00.472Z,40.00
2019-01-14T07:20:00.358Z,52.00
2019-01-14T07:21:53.036Z,60.00
2019-01-14T07:22:52.905Z,60.00
2019-01-14T07:24:45.585Z,64.00
2019-01-14T07:25:45.470Z,80.00
2019-01-14T07:27:38.147Z,104.00
2019-01-14T07:28:38.009Z,92.00
2019-01-14T07:30:30.725Z,140.00
2019-01-14T07:31:30.570Z,124.00
2019-01-14T07:33:23.250Z,116.00
2019-01-14T07:34:23.116Z,116.00
2019-01-14T07:36:15.773Z,144.00
2019-01-14T07:37:15.673Z,160.00
2019-01-14T07:39:08.338Z,220.00
2019-01-14T07:40:08.204Z,272.00
2019-01-14T07:42:00.859Z,320.00
2019-01-14T07:43:00.743Z,340.00
2019-01-14T07:44:53.432Z,388.00
2019-01-14T07:45:53.295Z,380.00
2019-01-14T07:47:45.950Z,444.00
2019-01-14T07:48:45.840Z,476.00
2019-01-14T07:50:38.513Z,596.00
2019-01-14T07:51:38.387Z,572.00
2019-01-14T07:53:31.060Z,548.00
2019-01-14T07:54:30.920Z,592.00
2019-01-14T07:56:23.579Z,692.00
2019-01-14T07:57:23.469Z,692.00
2019-01-14T07:59:16.144Z,816.00
2019-01-14T08:00:16.015Z,832.00
2019-01-14T08:02:08.674Z,844.00
2019-01-14T08:03:08.561Z,896.00
2019-01-14T08:05:01.240Z,1016.00
2019-01-14T08:06:01.101Z,1080.00
2019-01-14T08:07:53.766Z,1344.00
2019-01-14T08:08:53.649Z,1324.00
2019-01-14T08:10:46.327Z,1092.00
2019-01-14T08:11:46.194Z,1020.00
2019-01-14T08:13:38.884Z,1012.00
2019-01-14T08:14:38.739Z,1028.00
2019-01-14T08:16:31.402Z,1056.00
2019-01-14T08:17:31.292Z,1076.00
2019-01-14T08:19:23.964Z,1104.00
2019-01-14T08:20:23.833Z,1116.00
2019-01-14T08:22:16.494Z,1152.00
2019-01-14T08:23:16.383Z,1180.00
2019-01-14T08:25:09.052Z,1268.00
2019-01-14T08:26:08.917Z,1344.00
2019-01-14T08:28:01.587Z,1472.00
2019-01-14T08:29:01.476Z,1432.00
2019-01-14T08:30:54.161Z,1432.00
2019-01-14T08:31:54.022Z,1456.00
2019-01-14T08:33:46.691Z,1828.00
2019-01-14T08:34:46.554Z,2000.00
2019-01-14T08:36:39.230Z,1668.00
2019-01-14T08:37:39.103Z,1772.00
2019-01-14T08:39:31.766Z,1664.00
2019-01-14T08:40:31.663Z,1636.00
2019-01-14T08:42:24.341Z,1700.00
2019-01-14T08:43:24.210Z,1804.00
2019-01-14T08:45:16.873Z,1820.00
2019-01-14T08:46:16.764Z,1784.00
2019-01-14T08:48:09.436Z,2068.00
2019-01-14T08:49:09.307Z,1980.00
2019-01-14T08:51:01.979Z,2008.00
2019-01-14T08:52:01.870Z,1968.00
2019-01-14T08:53:54.542Z,1732.00
2019-01-14T08:54:54.424Z,1908.00
2019-01-14T08:56:47.082Z,1972.00
2019-01-14T08:57:54.226Z,2016.00
2019-01-14T08:59:39.643Z,1996.00
2019-01-14T09:00:39.509Z,1952.00
2019-01-14T09:02:32.176Z,2000.00
2019-01-14T09:03:32.060Z,2028.00
2019-01-14T09:05:24.736Z,2052.00
2019-01-14T09:06:24.603Z,2064.00
2019-01-14T09:08:17.264Z,2648.00
2019-01-14T09:09:17.150Z,3952.00
2019-01-14T09:11:09.834Z,3860.00
2019-01-14T09:12:09.707Z,2368.00
2019-01-14T09:14:02.363Z,1868.00
2019-01-14T09:15:02.242Z,1820.00
2019-01-14T09:16:54.920Z,1848.00
2019-01-14T09:18:02.359Z,1972.00
2019-01-14T09:19:47.443Z,1940.00
2019-01-14T09:20:47.330Z,2004.00
2019-01-14T09:22:40.010Z,2028.00
2019-01-14T09:23:39.879Z,2224.00
2019-01-14T09:25:32.538Z,1964.00
2019-01-14T09:26:32.429Z,1980.00
2019-01-14T09:28:25.104Z,1980.00
2019-01-14T09:29:24.970Z,1980.00
2019-01-14T09:31:17.630Z,1984.00
2019-01-14T09:32:17.516Z,1996.00
2019-01-14T09:34:10.192Z,2016.00
2019-01-14T09:35:10.069Z,2104.00
2019-01-14T09:37:02.724Z,2708.00
2019-01-14T09:38:02.621Z,3424.00
2019-01-14T09:39:55.290Z,3916.00
2019-01-14T09:40:55.156Z,3672.00
2019-01-14T09:42:47.819Z,2644.00
2019-01-14T09:43:47.721Z,2220.00
2019-01-14T09:45:40.372Z,1796.00
2019-01-14T09:46:40.251Z,1792.00
2019-01-14T09:48:32.899Z,1884.00
2019-01-14T09:49:32.795Z,1944.00
2019-01-14T09:51:25.470Z,2096.00
2019-01-14T09:52:25.338Z,2096.00
2019-01-14T09:54:17.995Z,2108.00
2019-01-14T09:55:17.883Z,2116.00
2019-01-14T09:57:10.562Z,2124.00
2019-01-14T09:58:10.430Z,2124.00
2019-01-14T10:00:03.099Z,2124.00
2019-01-14T10:01:02.999Z,2132.00
2019-01-14T10:02:55.810Z,2152.00
2019-01-14T10:03:55.568Z,2152.00
2019-01-14T10:05:48.188Z,2168.00
2019-01-14T10:06:48.068Z,2172.00
2019-01-14T10:08:43.179Z,2180.00
2019-01-14T10:09:40.620Z,2192.00
2019-01-14T10:11:33.277Z,2212.00
2019-01-14T10:12:33.164Z,2220.00
2019-01-14T10:14:25.840Z,2212.00
2019-01-14T10:15:25.708Z,2220.00
2019-01-14T10:17:18.367Z,2248.00
2019-01-14T10:18:18.281Z,2248.00
2019-01-14T10:20:10.932Z,2292.00
2019-01-14T10:21:10.797Z,2308.00
2019-01-14T10:23:03.465Z,2280.00
2019-01-14T10:24:03.365Z,2280.00
2019-01-14T10:25:56.029Z,2300.00
2019-01-14T10:26:55.898Z,2332.00
2019-01-14T10:28:48.555Z,2688.00
2019-01-14T10:29:48.437Z,2712.00
2019-01-14T10:31:41.121Z,2360.00
2019-01-14T10:32:40.989Z,2364.00
2019-01-14T10:34:33.645Z,2380.00
2019-01-14T10:35:33.534Z,2384.00
2019-01-14T10:37:26.217Z,2400.00
2019-01-14T10:38:26.094Z,2412.00
2019-01-14T10:40:18.747Z,2428.00
2019-01-14T10:41:18.626Z,2436.00
2019-01-14T10:43:11.306Z,2468.00
2019-01-14T10:44:11.172Z,2480.00
2019-01-14T10:46:03.838Z,2512.00
2019-01-14T10:47:03.728Z,2548.00
2019-01-14T10:48:56.401Z,2696.00
2019-01-14T10:49:56.272Z,2788.00
2019-01-14T10:51:48.935Z,2948.00
2019-01-14T10:52:48.817Z,3116.00
2019-01-14T10:54:41.502Z,3660.00
2019-01-14T10:55:41.372Z,4256.00
2019-01-14T10:57:34.049Z,4884.00
2019-01-14T10:58:33.922Z,5320.00
2019-01-14T11:00:26.597Z,5048.00
2019-01-14T11:01:26.473Z,4504.00
2019-01-14T11:03:19.150Z,5164.00
2019-01-14T11:04:19.025Z,4840.00
2019-01-14T11:06:11.692Z,4308.00
2019-01-14T11:07:11.572Z,4256.00
2019-01-14T11:09:06.031Z,5756.00
2019-01-14T11:10:04.126Z,5964.00
2019-01-14T11:11:56.794Z,4820.00
2019-01-14T11:12:56.681Z,4608.00
2019-01-14T11:14:49.359Z,5296.00
2019-01-14T11:15:49.229Z,5404.00
2019-01-14T11:17:41.912Z,3216.00
2019-01-14T11:18:41.775Z,3816.00
2019-01-14T11:20:34.444Z,3764.00
2019-01-14T11:21:34.331Z,4136.00
2019-01-14T11:23:27.003Z,5940.00
2019-01-14T11:24:26.882Z,6136.00
2019-01-14T11:26:19.551Z,5904.00
2019-01-14T11:27:19.436Z,6056.00
2019-01-14T11:29:12.119Z,4488.00
2019-01-14T11:30:11.986Z,3932.00
2019-01-14T11:32:04.660Z,3396.00
2019-01-14T11:33:04.552Z,3624.00
2019-01-14T11:34:57.236Z,3828.00
2019-01-14T11:35:57.098Z,3392.00
2019-01-14T11:37:49.768Z,3092.00
2019-01-14T11:38:49.654Z,2944.00
2019-01-14T11:40:42.335Z,2812.00
2019-01-14T11:41:42.227Z,2428.00
2019-01-14T11:43:34.937Z,2592.00
2019-01-14T11:44:34.786Z,3004.00
2019-01-14T11:46:27.511Z,4624.00
2019-01-14T11:47:27.358Z,3036.00
2019-01-14T11:49:20.086Z,2160.00
2019-01-14T11:50:19.977Z,2164.00
2019-01-14T11:52:12.622Z,2784.00
2019-01-14T11:53:12.490Z,2892.00
2019-01-14T11:55:05.176Z,3540.00
2019-01-14T11:56:05.117Z,3844.00
2019-01-14T11:57:57.733Z,5736.00
2019-01-14T11:58:57.602Z,4400.00
2019-01-14T12:00:50.280Z,3680.00
2019-01-14T12:01:50.162Z,3484.00
2019-01-14T12:03:42.895Z,2372.00
2019-01-14T12:04:42.757Z,2880.00
2019-01-14T12:06:35.402Z,3376.00
2019-01-14T12:07:35.272Z,3388.00
2019-01-14T12:09:27.963Z,2960.00
2019-01-14T12:10:27.830Z,3364.00
2019-01-14T12:12:20.495Z,2708.00
2019-01-14T12:13:20.380Z,3680.00
2019-01-14T12:15:13.158Z,2468.00
2019-01-14T12:16:13.016Z,2708.00
2019-01-14T12:18:05.691Z,4224.00
2019-01-14T12:19:05.595Z,3436.00
2019-01-14T12:20:58.295Z,3552.00
2019-01-14T12:21:58.150Z,4408.00
2019-01-14T12:23:50.812Z,6568.00
2019-01-14T12:24:50.696Z,5336.00
2019-01-14T12:26:43.387Z,4064.00
2019-01-14T12:27:43.255Z,4100.00
2019-01-14T12:29:35.920Z,3848.00
2019-01-14T12:30:35.807Z,3572.00
2019-01-14T12:32:28.483Z,3600.00
2019-01-14T12:33:28.355Z,4264.00
2019-01-14T12:35:21.018Z,3988.00
2019-01-14T12:36:20.906Z,4212.00
2019-01-14T12:38:13.601Z,6032.00
2019-01-14T12:39:19.530Z,5600.00
2019-01-14T12:41:06.144Z,7332.00
2019-01-14T12:42:06.027Z,7816.00
2019-01-14T12:43:58.707Z,6428.00
2019-01-14T12:44:58.576Z,6544.00
2019-01-14T12:46:51.272Z,5400.00
2019-01-14T12:47:51.128Z,4792.00
2019-01-14T12:49:43.805Z,4840.00
2019-01-14T12:50:43.674Z,4992.00
2019-01-14T12:52:36.345Z,4684.00
2019-01-14T12:53:36.252Z,4636.00
2019-01-14T12:55:28.999Z,3552.00
2019-01-14T12:56:28.836Z,2824.00
2019-01-14T12:58:21.553Z,2644.00
2019-01-14T12:59:21.433Z,2248.00
2019-01-14T13:01:14.130Z,2088.00
2019-01-14T13:02:13.994Z,2408.00
2019-01-14T13:04:06.714Z,1228.00
2019-01-14T13:05:06.566Z,1008.00
2019-01-14T13:07:00.414Z,1076.00
2019-01-14T13:07:59.110Z,948.00
2019-01-14T13:09:51.773Z,932.00
2019-01-14T13:10:51.675Z,1372.00
2019-01-14T13:12:44.386Z,2060.00
2019-01-14T13:13:44.239Z,2456.00
2019-01-14T13:15:37.560Z,2844.00
2019-01-14T13:16:37.124Z,2628.00
2019-01-14T13:18:29.707Z,2440.00
2019-01-14T13:19:29.502Z,2488.00
2019-01-14T13:21:22.193Z,2796.00
2019-01-14T13:22:22.047Z,2944.00
2019-01-14T13:24:14.746Z,3020.00
2019-01-14T13:25:14.601Z,2920.00
2019-01-14T13:27:07.256Z,3216.00
2019-01-14T13:28:07.148Z,3068.00
2019-01-14T13:29:59.823Z,3316.00
2019-01-14T13:30:59.698Z,3460.00
2019-01-14T13:32:52.356Z,2448.00
2019-01-14T13:33:52.249Z,2056.00
2019-01-14T13:35:44.918Z,1860.00
2019-01-14T13:36:44.793Z,1828.00
2019-01-14T13:38:37.481Z,1792.00
2019-01-14T13:39:37.373Z,1816.00
2019-01-14T13:41:30.062Z,1864.00
2019-01-14T13:42:29.949Z,1872.00
2019-01-14T13:44:22.663Z,2016.00
2019-01-14T13:45:22.499Z,2016.00
2019-01-14T13:47:15.181Z,2028.00
2019-01-14T13:48:15.051Z,2056.00
2019-01-14T13:50:07.724Z,2368.00
2019-01-14T13:51:07.621Z,2708.00
2019-01-14T13:53:00.388Z,3516.00
2019-01-14T13:54:00.192Z,3596.00
2019-01-14T13:55:59.291Z,3056.00
2019-01-14T13:56:52.755Z,2640.00
2019-01-14T13:58:45.448Z,2204.00
2019-01-14T13:59:45.324Z,2500.00
2019-01-14T14:01:38.027Z,2312.00
2019-01-14T14:02:37.854Z,2164.00
2019-01-14T14:04:30.526Z,2288.00
2019-01-14T14:05:30.403Z,2260.00
2019-01-14T14:07:23.072Z,2180.00
2019-01-14T14:08:22.960Z,2316.00
2019-01-14T14:10:15.713Z,2296.00
2019-01-14T14:11:15.518Z,2252.00
2019-01-14T14:13:08.195Z,2568.00
2019-01-14T14:14:08.078Z,2580.00
2019-01-14T14:16:00.858Z,2304.00
2019-01-14T14:17:00.711Z,2016.00
2019-01-14T14:18:53.412Z,1764.00
2019-01-14T14:19:53.263Z,2048.00
2019-01-14T14:21:46.079Z,2340.00
2019-01-14T14:22:45.887Z,2060.00
2019-01-14T14:24:38.572Z,1932.00
2019-01-14T14:25:38.452Z,1860.00
2019-01-14T14:27:31.121Z,1844.00
2019-01-14T14:28:31.006Z,1852.00
2019-01-14T14:30:23.658Z,1680.00
2019-01-14T14:31:23.537Z,1592.00
2019-01-14T14:33:16.195Z,1572.00
2019-01-14T14:34:16.073Z,1564.00
2019-01-14T14:36:08.821Z,1592.00
2019-01-14T14:37:08.641Z,1560.00
2019-01-14T14:39:01.327Z,1480.00
2019-01-14T14:40:01.256Z,1460.00
2019-01-14T14:41:53.882Z,1536.00
2019-01-14T14:42:53.755Z,1504.00
2019-01-14T14:44:46.475Z,1392.00
2019-01-14T14:45:46.334Z,1360.00
2019-01-14T14:47:39.067Z,1296.00
2019-01-14T14:48:38.958Z,1280.00
2019-01-14T14:50:31.632Z,1136.00
2019-01-14T14:51:31.540Z,1200.00
2019-01-14T14:53:24.161Z,1176.00
2019-01-14T14:54:24.042Z,1168.00
2019-01-14T14:56:16.861Z,1164.00
2019-01-14T14:57:16.727Z,1152.00
2019-01-14T14:59:09.401Z,1112.00
2019-01-14T15:00:09.285Z,1120.00
2019-01-14T15:02:01.961Z,1180.00
2019-01-14T15:03:01.837Z,1196.00
2019-01-14T15:04:54.514Z,1104.00
2019-01-14T15:05:54.378Z,1088.00
2019-01-14T15:07:47.057Z,1036.00
2019-01-14T15:08:46.925Z,1016.00
2019-01-14T15:10:39.592Z,960.00
2019-01-14T15:11:39.476Z,936.00
2019-01-14T15:13:32.150Z,828.00
2019-01-14T15:14:32.023Z,784.00
2019-01-14T15:16:24.685Z,824.00
2019-01-14T15:17:24.603Z,800.00
2019-01-14T15:19:17.247Z,724.00
2019-01-14T15:20:17.119Z,708.00
2019-01-14T15:22:09.780Z,668.00
2019-01-14T15:23:09.662Z,624.00
2019-01-14T15:25:02.344Z,584.00
2019-01-14T15:26:02.209Z,552.00
2019-01-14T15:27:54.865Z,516.00
2019-01-14T15:28:54.758Z,496.00
2019-01-14T15:30:47.425Z,460.00
2019-01-14T15:31:47.297Z,428.00
2019-01-14T15:33:39.955Z,400.00
2019-01-14T15:34:40.792Z,380.00
2019-01-14T15:36:32.521Z,320.00
2019-01-14T15:37:32.395Z,292.00
2019-01-14T15:40:24.947Z,244.00
2019-01-14T15:42:17.629Z,212.00
2019-01-14T15:43:17.492Z,200.00
2019-01-14T15:45:10.156Z,196.00
2019-01-14T15:46:10.044Z,184.00
2019-01-14T15:48:02.727Z,160.00
2019-01-14T15:49:02.589Z,144.00
2019-01-14T15:50:55.249Z,124.00
2019-01-14T15:51:55.131Z,112.00
2019-01-14T15:53:47.811Z,96.00
2019-01-14T15:54:47.673Z,92.00
2019-01-14T15:56:40.351Z,80.00
2019-01-14T15:57:40.241Z,72.00
2019-01-14T15:59:32.918Z,64.00
2019-01-14T16:00:32.788Z,60.00
2019-01-14T16:02:25.442Z,48.00
2019-01-14T16:03:25.329Z,48.00
2019-01-14T16:05:18.012Z,40.00
2019-01-14T16:06:17.872Z,36.00
2019-01-14T16:08:10.527Z,32.00
2019-01-14T16:09:10.421Z,32.00
2019-01-14T16:11:03.102Z,28.00
2019-01-14T16:12:02.966Z,28.00
2019-01-14T16:13:55.633Z,24.00
2019-01-14T16:14:55.514Z,24.00
2019-01-14T16:16:48.192Z,24.00
2019-01-14T16:17:48.064Z,20.00
2019-01-14T16:19:40.723Z,24.00
2019-01-14T16:20:40.610Z,24.00
2019-01-14T16:22:33.297Z,20.00
2019-01-14T16:23:33.152Z,20.00
2019-01-14T16:25:25.817Z,20.00
2019-01-14T16:26:25.696Z,20.00
2019-01-14T16:28:18.385Z,24.00
2019-01-14T16:29:18.240Z,24.00
2019-01-14T16:31:10.902Z,24.00
2019-01-14T16:32:10.795Z,20.00
2019-01-14T16:34:03.461Z,20.00
2019-01-14T16:35:03.328Z,20.00
2019-01-14T16:36:55.996Z,20.00
2019-01-14T16:37:55.881Z,20.00
2019-01-14T16:39:48.549Z,20.00
2019-01-14T16:40:48.423Z,20.00
2019-01-14T16:42:41.083Z,20.00
2019-01-14T16:43:40.975Z,20.00
2019-01-14T16:45:33.658Z,20.00
2019-01-14T16:46:33.518Z,20.00
2019-01-14T16:48:26.175Z,20.00
2019-01-14T16:49:26.067Z,20.00
2019-01-14T16:51:18.739Z,20.00
2019-01-14T16:52:18.613Z,20.00
2019-01-14T16:54:11.354Z,20.00
2019-01-14T16:55:11.165Z,20.00
2019-01-14T16:57:03.837Z,20.00
2019-01-14T16:58:03.725Z,20.00
2019-01-14T16:59:56.405Z,20.00
2019-01-14T17:00:56.287Z,20.00
2019-01-14T17:02:48.975Z,20.00
2019-01-14T17:03:48.836Z,20.00
2019-01-14T17:05:41.488Z,20.00
2019-01-14T17:06:41.377Z,20.00
2019-01-14T17:08:34.059Z,20.00
2019-01-14T17:09:33.945Z,20.00
2019-01-14T17:11:26.648Z,20.00
2019-01-14T17:12:26.466Z,20.00
2019-01-14T17:14:19.143Z,20.00
2019-01-14T17:15:19.033Z,20.00
2019-01-14T17:17:11.715Z,20.00
2019-01-14T17:18:11.573Z,20.00
2019-01-14T17:20:04.237Z,20.00
2019-01-14T17:21:04.131Z,20.00
2019-01-14T17:22:56.807Z,20.00
2019-01-14T17:23:56.675Z,20.00
2019-01-14T17:25:49.341Z,20.00
2019-01-14T17:26:49.236Z,20.00
2019-01-14T17:28:41.943Z,20.00
2019-01-14T17:29:41.780Z,20.00
2019-01-14T17:31:34.434Z,20.00
2019-01-14T17:32:34.331Z,20.00
2019-01-14T17:34:27.005Z,20.00
2019-01-14T17:35:26.875Z,20.00
2019-01-14T17:37:19.545Z,20.00
2019-01-14T17:38:19.432Z,20.00
2019-01-14T17:40:12.118Z,20.00
2019-01-14T17:41:11.982Z,20.00
2019-01-14T17:43:04.647Z,20.00
2019-01-14T17:44:04.524Z,20.00
2019-01-14T17:45:57.205Z,20.00
2019-01-14T17:46:57.063Z,20.00
2019-01-14T17:48:49.722Z,20.00
2019-01-14T17:49:49.632Z,20.00
2019-01-14T17:51:42.484Z,20.00
2019-01-14T17:52:42.155Z,20.00
2019-01-14T17:54:34.873Z,20.00
2019-01-14T17:55:34.835Z,20.00
2019-01-14T17:57:27.392Z,20.00
2019-01-14T17:58:27.251Z,20.00
2019-01-14T18:00:19.936Z,20.00
2019-01-14T18:01:19.802Z,20.00
2019-01-14T18:03:12.489Z,20.00
2019-01-14T18:04:12.347Z,20.00
2019-01-14T18:06:05.195Z,20.00
2019-01-14T18:07:04.891Z,20.00
2019-01-14T18:08:57.966Z,20.00
2019-01-14T18:09:57.466Z,20.00
2019-01-14T18:11:50.121Z,20.00
2019-01-14T18:12:50.009Z,20.00
2019-01-14T18:14:42.701Z,20.00
2019-01-14T18:15:42.551Z,20.00
2019-01-14T18:17:35.216Z,20.00
2019-01-14T18:18:35.153Z,20.00
2019-01-14T18:20:27.774Z,20.00
2019-01-14T18:21:27.641Z,20.00
2019-01-14T18:23:20.298Z,20.00
2019-01-14T18:24:20.181Z,20.00
2019-01-14T18:26:13.359Z,20.00
2019-01-14T18:27:13.235Z,20.00
2019-01-14T18:29:05.904Z,20.00
2019-01-14T18:30:05.770Z,20.00
2019-01-14T18:31:58.430Z,20.00
2019-01-14T18:32:58.317Z,20.00
2019-01-14T18:34:51.009Z,20.00
2019-01-14T18:35:50.877Z,20.00
2019-01-14T18:37:43.540Z,20.00
2019-01-14T18:38:43.413Z,20.00
2019-01-14T18:40:36.104Z,20.00
2019-01-14T18:41:35.965Z,20.00
2019-01-14T18:43:28.621Z,20.00
2019-01-14T18:44:28.525Z,20.00
2019-01-14T18:46:21.184Z,20.00
2019-01-14T18:47:21.053Z,20.00
2019-01-14T18:49:13.741Z,20.00
2019-01-14T18:50:13.630Z,20.00
2019-01-14T18:52:06.297Z,20.00
2019-01-14T18:53:06.171Z,20.00
2019-01-14T18:54:58.843Z,20.00
2019-01-14T18:55:58.865Z,20.00
2019-01-14T18:57:51.403Z,20.00
2019-01-14T18:58:51.272Z,20.00
2019-01-14T19:00:43.978Z,20.00
2019-01-14T19:01:43.824Z,20.00
2019-01-14T19:03:36.631Z,20.00
2019-01-14T19:04:36.474Z,20.00
2019-01-14T19:06:29.045Z,20.00
2019-01-14T19:07:28.937Z,20.00
2019-01-14T19:09:21.659Z,20.00
2019-01-14T19:10:21.480Z,20.00
2019-01-14T19:12:14.138Z,20.00
2019-01-14T19:13:14.019Z,20.00
2019-01-14T19:15:06.710Z,20.00
2019-01-14T19:16:06.569Z,20.00
2019-01-14T19:17:59.231Z,20.00
2019-01-14T19:18:59.116Z,20.00
2019-01-14T19:20:51.803Z,20.00
2019-01-14T19:21:51.678Z,20.00
2019-01-14T19:23:44.334Z,20.00
2019-01-14T19:24:44.225Z,20.00
2019-01-14T19:26:36.897Z,20.00
2019-01-14T19:27:36.762Z,20.00
2019-01-14T19:29:29.429Z,20.00
2019-01-14T19:30:29.385Z,20.00
2019-01-14T19:32:21.989Z,20.00
2019-01-14T19:33:21.860Z,20.00
2019-01-14T19:35:14.532Z,20.00
2019-01-14T19:36:14.405Z,20.00
2019-01-14T19:38:07.113Z,20.00
2019-01-14T19:39:06.976Z,20.00
2019-01-14T19:41:02.048Z,20.00
2019-01-14T19:41:59.520Z,20.00
2019-01-14T19:43:52.236Z,20.00
2019-01-14T19:44:52.091Z,20.00
2019-01-14T19:46:44.783Z,20.00
2019-01-14T19:47:44.646Z,20.00
2019-01-14T19:49:37.308Z,20.00
2019-01-14T19:50:37.199Z,20.00
2019-01-14T19:52:29.887Z,20.00
2019-01-14T19:53:29.752Z,20.00
2019-01-14T19:55:22.414Z,20.00
2019-01-14T19:56:22.303Z,20.00
2019-01-14T19:58:14.978Z,20.00
2019-01-14T19:59:14.859Z,20.00
2019-01-14T20:01:07.511Z,20.00
2019-01-14T20:02:07.394Z,20.00
2019-01-14T20:04:00.085Z,20.00
2019-01-14T20:04:59.943Z,20.00
2019-01-14T20:06:52.601Z,20.00
2019-01-14T20:07:52.482Z,20.00
2019-01-14T20:09:45.160Z,20.00
2019-01-14T20:10:45.030Z,20.00
2019-01-14T20:12:37.688Z,20.00
2019-01-14T20:13:37.581Z,20.00
2019-01-14T20:15:30.260Z,20.00
2019-01-14T20:16:30.118Z,20.00
2019-01-14T20:18:22.786Z,20.00
2019-01-14T20:19:22.669Z,20.00
2019-01-14T20:21:15.351Z,20.00
2019-01-14T20:22:15.209Z,20.00
2019-01-14T20:24:07.883Z,20.00
2019-01-14T20:25:07.764Z,20.00
2019-01-14T20:27:00.443Z,20.00
2019-01-14T20:28:00.305Z,20.00
2019-01-14T20:29:52.964Z,20.00
2019-01-14T20:30:52.884Z,20.00
2019-01-14T20:32:46.549Z,20.00
2019-01-14T20:33:46.421Z,20.00
2019-01-14T20:35:39.387Z,20.00
2019-01-14T20:36:38.941Z,20.00
2019-01-14T20:38:32.243Z,20.00
2019-01-14T20:39:31.495Z,20.00
2019-01-14T20:41:24.211Z,20.00
2019-01-14T20:42:24.105Z,20.00
2019-01-14T20:44:16.810Z,20.00
2019-01-14T20:45:16.663Z,20.00
2019-01-14T20:47:09.295Z,20.00
2019-01-14T20:48:09.179Z,20.00
2019-01-14T20:50:01.856Z,20.00
2019-01-14T20:51:01.727Z,20.00
2019-01-14T20:52:54.643Z,20.00
2019-01-14T20:53:54.533Z,20.00
2019-01-14T20:55:47.214Z,20.00
2019-01-14T20:56:47.074Z,20.00
2019-01-14T20:58:39.744Z,20.00
2019-01-14T20:59:39.623Z,20.00
2019-01-14T21:01:32.303Z,20.00
2019-01-14T21:02:32.170Z,20.00
2019-01-14T21:04:24.826Z,20.00
2019-01-14T21:05:24.717Z,20.00
2019-01-14T21:07:17.402Z,20.00
2019-01-14T21:08:17.266Z,20.00
2019-01-14T21:10:09.940Z,20.00
2019-01-14T21:11:09.818Z,20.00
2019-01-14T21:13:02.505Z,20.00
2019-01-14T21:14:02.376Z,20.00
2019-01-14T21:15:55.034Z,20.00
2019-01-14T21:16:54.920Z,20.00
2019-01-14T21:18:47.601Z,20.00
2019-01-14T21:19:47.470Z,20.00
2019-01-14T21:21:40.141Z,0.00
2019-01-14T21:22:40.027Z,0.00
2019-01-14T21:24:32.706Z,0.00
2019-01-14T21:25:32.573Z,0.00
2019-01-14T21:27:25.250Z,0.00
2019-01-14T21:28:25.135Z,0.00
2019-01-14T21:30:17.808Z,0.00
2019-01-14T21:31:17.677Z,0.00
2019-01-14T21:33:10.352Z,0.00
2019-01-14T21:34:10.224Z,0.00
2019-01-14T21:36:02.898Z,0.00
2019-01-14T21:37:02.778Z,0.00
2019-01-14T21:38:55.454Z,0.00
2019-01-14T21:39:55.314Z,0.00
2019-01-14T21:41:47.975Z,0.00
2019-01-14T21:42:47.868Z,0.00
2019-01-14T21:44:40.551Z,0.00
2019-01-14T21:45:40.421Z,0.00
2019-01-14T21:47:33.084Z,0.00
2019-01-14T21:48:32.966Z,0.00
2019-01-14T21:50:25.673Z,0.00
2019-01-14T21:51:25.513Z,0.00
2019-01-14T21:53:18.178Z,0.00
2019-01-14T21:54:18.065Z,0.00
2019-01-14T21:56:10.749Z,0.00
2019-01-14T21:57:10.615Z,0.00
2019-01-14T21:59:03.276Z,0.00
2019-01-14T22:00:03.160Z,0.00
2019-01-14T22:01:55.838Z,0.00
2019-01-14T22:02:55.701Z,0.00
2019-01-14T22:04:48.369Z,0.00
2019-01-14T22:05:48.244Z,0.00
2019-01-14T22:07:40.925Z,0.00
2019-01-14T22:08:40.789Z,0.00
2019-01-14T22:10:33.459Z,0.00
2019-01-14T22:11:38.573Z,0.00
2019-01-14T22:13:26.019Z,0.00
2019-01-14T22:14:25.880Z,0.00
2019-01-14T22:16:18.541Z,0.00
2019-01-14T22:17:18.433Z,0.00
2019-01-14T22:19:11.121Z,0.00
2019-01-14T22:20:10.977Z,0.00
2019-01-14T22:22:03.686Z,0.00
2019-01-14T22:23:03.537Z,0.00
2019-01-14T22:24:56.211Z,0.00
2019-01-14T22:25:56.079Z,0.00
2019-01-14T22:27:48.758Z,0.00
2019-01-14T22:28:48.641Z,0.00
2019-01-14T22:30:41.317Z,0.00
2019-01-14T22:31:41.193Z,0.00
2019-01-14T22:33:33.852Z,0.00
2019-01-14T22:34:33.744Z,0.00
2019-01-14T22:36:26.436Z,0.00
2019-01-14T22:37:26.300Z,0.00
2019-01-14T22:39:18.947Z,0.00
2019-01-14T22:40:18.827Z,0.00
2019-01-14T22:42:11.513Z,0.00
2019-01-14T22:43:11.381Z,0.00
2019-01-14T22:45:04.054Z,0.00
2019-01-14T22:46:03.943Z,0.00
2019-01-14T22:47:56.613Z,0.00
2019-01-14T22:48:56.483Z,0.00
2019-01-14T22:50:49.139Z,0.00
2019-01-14T22:51:49.021Z,0.00
2019-01-14T22:53:41.696Z,0.00
2019-01-14T22:54:41.570Z,0.00
2019-01-14T22:56:34.222Z,0.00
2019-01-14T22:57:34.116Z,0.00
2019-01-14T22:59:26.782Z,0.00
